»·PEaware :: N6870P KSNA-KCRQ

N6870P :: KSNA-KCRQ

FLIGHT INFORMATION

Flight Status: Arrived
Operator: Privately registered:
United States
More flights under this callsign
Pilot: Larry J. (31147)
Aircraft: PIPER PA-24 COMMANCHE
(PA24)
More flights by this aircraft type
Origin: KSNA John Wayne-Orange Co
United States
Destination: KCRQ McClellan-Palomar
United States
More flights between these airports :: More routes between these airports
Route: V23 OCN
File this flight plan on PilotEdge
Remarks:
Altitude:
(Current/Filed)
5,000ft
Speed:
(Current/Filed)
125kts
Departed: 11-Oct-20 09:53 AM
Arrived: 11-Oct-20 10:28 AM
Distance/Time
Traveled:
44nm/0:35
Distance/Time
To Go:
Arrived

Flight Plot

Page will automatically refresh every two minutes.


Map Options




Map Legend


Flown Route
Filed Route
Departure Airport
Arrival Airport
Navaid (VOR, NDB)
Fix

Horizontal Profiles

Position Reports

Time Latitude Longitude Heading Altitude Ground
Speed
11-Oct-20 09:34 33.671199 -117.868020 210 58ft 0kts
11-Oct-20 09:35 33.671199 -117.868020 210 58ft 0kts
11-Oct-20 09:36 33.671199 -117.868020 210 58ft 0kts
11-Oct-20 09:37 33.671199 -117.868020 210 58ft 0kts
11-Oct-20 09:38 33.671199 -117.868020 210 58ft 0kts
11-Oct-20 09:39 33.671199 -117.868020 210 58ft 0kts
11-Oct-20 09:40 33.671199 -117.868020 210 58ft 0kts
11-Oct-20 09:41 33.671199 -117.868020 210 58ft 0kts
11-Oct-20 09:42 33.671199 -117.868020 210 58ft 0kts
11-Oct-20 09:43 33.671199 -117.868020 210 58ft 0kts
11-Oct-20 09:44 33.672322 -117.867997 27 58ft 8kts
11-Oct-20 09:45 33.674286 -117.866980 27 58ft 9kts
11-Oct-20 09:47 33.677497 -117.864930 27 58ft 12kts
11-Oct-20 09:48 33.679788 -117.863503 358 58ft 5kts
11-Oct-20 09:49 33.679906 -117.863554 313 58ft 0kts
11-Oct-20 09:50 33.679906 -117.863554 312 58ft 0kts
11-Oct-20 09:51 33.679906 -117.863554 312 58ft 0kts
11-Oct-20 09:52 33.679838 -117.864352 207 58ft 18kts
11-Oct-20 09:53 33.658578 -117.877465 187 1093ft 114kts
11-Oct-20 09:54 33.625574 -117.882073 185 2660ft 115kts
11-Oct-20 09:55 33.597093 -117.874150 120 4212ft 119kts
11-Oct-20 09:56 33.577005 -117.836113 120 4943ft 165kts
11-Oct-20 09:57 33.555476 -117.794463 120 4935ft 137kts
11-Oct-20 09:58 33.531004 -117.758775 130 4935ft 139kts
11-Oct-20 09:59 33.504804 -117.724748 132 4934ft 136kts
11-Oct-20 10:00 33.478837 -117.692676 133 4934ft 132kts
11-Oct-20 10:01 33.452932 -117.661606 133 4935ft 131kts
11-Oct-20 10:02 33.426877 -117.630927 134 4935ft 131kts
11-Oct-20 10:02 33.405084 -117.605471 134 4935ft 131kts
11-Oct-20 10:04 33.374416 -117.569822 134 4935ft 131kts
11-Oct-20 10:04 33.352503 -117.544669 134 4935ft 131kts
11-Oct-20 10:05 33.326225 -117.514213 134 4935ft 131kts
11-Oct-20 10:06 33.300128 -117.484330 133 4935ft 129kts
11-Oct-20 10:07 33.285397 -117.446984 100 4935ft 128kts
11-Oct-20 10:08 33.278053 -117.405092 100 4935ft 128kts
11-Oct-20 10:09 33.270180 -117.360221 100 4937ft 145kts
11-Oct-20 10:10 33.261764 -117.311819 101 4932ft 144kts
11-Oct-20 10:11 33.254074 -117.267468 100 4936ft 137kts
11-Oct-20 10:12 33.246252 -117.222515 100 4934ft 137kts
11-Oct-20 10:13 33.238512 -117.177953 100 4935ft 136kts
11-Oct-20 10:14 33.230782 -117.133505 101 4935ft 136kts
11-Oct-20 10:15 33.223681 -117.093127 100 4934ft 119kts
11-Oct-20 10:16 33.216581 -117.054044 100 4934ft 120kts
11-Oct-20 10:17 33.201343 -117.021736 159 4880ft 121kts
11-Oct-20 10:18 33.166123 -117.008150 166 4071ft 143kts
11-Oct-20 10:19 33.153523 -117.040413 279 3736ft 128kts
11-Oct-20 10:20 33.157227 -117.081608 264 3454ft 107kts
11-Oct-20 10:21 33.153802 -117.116068 259 3102ft 108kts
11-Oct-20 10:22 33.148507 -117.152021 257 2497ft 110kts
11-Oct-20 10:23 33.143241 -117.186265 256 1893ft 100kts
11-Oct-20 10:24 33.138346 -117.216293 256 1356ft 86kts
11-Oct-20 10:25 33.133925 -117.244284 256 876ft 86kts
11-Oct-20 10:26 33.129472 -117.272062 261 364ft 71kts
11-Oct-20 10:27 33.127524 -117.279600 173 333ft 0kts

Navigation Log

Ident Type
Flight plan parsing failed, navigation log unavailable